Time;durP1;ratioP1;P1;durP2;ratioP2;P2;SDS_P1;SDS_P2;PMS_P1;PMS_P2;Temp;Humidity;BMP_temperature;BMP_pressure;BME280_temperature;BME280_humidity;BME280_pressure;Samples;Min_cycle;Max_cycle;Signal;HPM_P1;HPM_P2
2023/09/20 00:01:46;;;;;;;1.08;0.10;;;;;;;18.48;100.00;100732.34;4980673;28;20042;-68
2023/09/20 00:04:12;;;;;;;1.75;0.22;;;;;;;18.56;100.00;100740.13;4985087;28;20755;-68
2023/09/20 00:06:38;;;;;;;0.50;0.10;;;;;;;18.61;100.00;100739.59;4988179;28;20030;-69
2023/09/20 00:09:04;;;;;;;0.60;0.10;;;;;;;18.58;100.00;100738.94;4989483;28;20056;-68
2023/09/20 00:11:29;;;;;;;1.33;0.10;;;;;;;18.56;98.58;100742.78;4987922;28;20061;-68
2023/09/20 00:13:57;;;;;;;0.50;0.10;;;;;;;18.58;98.48;100738.13;4987390;28;20038;-68
2023/09/20 00:16:23;;;;;;;1.23;0.10;;;;;;;18.58;98.96;100728.38;4985673;28;20396;-68
2023/09/20 00:18:49;;;;;;;0.38;0.10;;;;;;;18.61;98.80;100726.41;4988664;28;20038;-68
2023/09/20 00:21:14;;;;;;;0.32;0.10;;;;;;;18.66;98.80;100732.75;5003380;28;20030;-68
2023/09/20 00:23:40;;;;;;;0.47;0.10;;;;;;;18.69;98.08;100728.91;4991058;28;20127;-69
2023/09/20 00:26:05;;;;;;;0.77;0.10;;;;;;;18.70;98.75;100735.81;4985777;28;20033;-69
2023/09/20 00:28:31;;;;;;;0.40;0.10;;;;;;;18.72;100.00;100731.97;4988850;28;20066;-69
2023/09/20 00:30:57;;;;;;;0.38;0.10;;;;;;;18.70;99.59;100734.00;4989491;28;20105;-69
2023/09/20 00:33:23;;;;;;;0.30;0.10;;;;;;;18.64;99.28;100732.13;4988243;28;20267;-68
2023/09/20 00:35:48;;;;;;;0.63;0.10;;;;;;;18.65;99.62;100728.47;4989082;28;20481;-69
2023/09/20 00:38:16;;;;;;;0.60;0.13;;;;;;;18.68;99.68;100725.47;4990750;28;20034;-69
2023/09/20 00:40:43;;;;;;;0.65;0.13;;;;;;;18.72;97.26;100731.97;4988705;28;20022;-68
2023/09/20 00:43:11;;;;;;;0.55;0.10;;;;;;;18.70;97.20;100730.53;4989584;28;20507;-68
2023/09/20 00:45:40;;;;;;;0.82;0.10;;;;;;;18.66;96.94;100732.75;4988545;28;20080;-68
2023/09/20 00:48:07;;;;;;;0.57;0.10;;;;;;;18.60;97.91;100740.56;4989810;28;20038;-68
2023/09/20 00:50:35;;;;;;;0.17;0.10;;;;;;;18.46;96.99;100740.44;4987253;28;20042;-68
2023/09/20 00:53:06;;;;;;;0.60;0.10;;;;;;;18.37;98.36;100735.50;4989453;28;20396;-68
2023/09/20 00:55:33;;;;;;;0.47;0.20;;;;;;;18.36;99.15;100739.16;4988446;28;20034;-68
2023/09/20 00:58:07;;;;;;;0.68;0.40;;;;;;;18.36;97.94;100737.34;4992913;28;20035;-68
2023/09/20 01:00:36;;;;;;;0.70;0.17;;;;;;;18.39;97.98;100730.88;4991667;28;20045;-68
2023/09/20 01:03:02;;;;;;;0.75;0.10;;;;;;;18.43;97.83;100725.00;4993261;28;20034;-68
2023/09/20 01:05:30;;;;;;;0.50;0.10;;;;;;;18.45;98.65;100716.88;4991569;28;20113;-68
2023/09/20 01:07:56;;;;;;;1.30;0.40;;;;;;;18.40;98.70;100714.84;4991866;28;20104;-68
2023/09/20 01:10:24;;;;;;;0.73;0.10;;;;;;;18.34;99.19;100715.59;4990989;28;20061;-68
2023/09/20 01:12:54;;;;;;;2.72;0.20;;;;;;;18.29;100.00;100720.63;4990702;28;20388;-68
2023/09/20 01:15:21;;;;;;;0.77;0.30;;;;;;;18.24;99.00;100721.19;4991160;28;20472;-69
2023/09/20 01:17:48;;;;;;;0.45;0.17;;;;;;;18.26;100.00;100723.63;4991952;28;20547;-69
2023/09/20 01:20:18;;;;;;;0.80;0.20;;;;;;;18.24;100.00;100721.19;4991753;28;20042;-69
2023/09/20 01:22:46;;;;;;;0.40;0.10;;;;;;;18.14;100.00;100711.94;4990580;28;20060;-69
2023/09/20 01:25:19;;;;;;;1.27;0.10;;;;;;;18.11;100.00;100714.97;4991295;28;20037;-68
2023/09/20 01:27:45;;;;;;;0.65;0.20;;;;;;;18.01;100.00;100719.72;4991778;28;20050;-68
2023/09/20 01:30:11;;;;;;;0.35;0.10;;;;;;;18.04;100.00;100714.88;4990858;28;20037;-68
2023/09/20 01:32:37;;;;;;;0.40;0.20;;;;;;;18.00;100.00;100718.06;4991052;28;20469;-68
2023/09/20 01:35:03;;;;;;;0.40;0.08;;;;;;;18.03;100.00;100717.72;4990484;28;20117;-68
2023/09/20 01:37:28;;;;;;;0.20;0.10;;;;;;;18.10;100.00;100715.97;4988792;28;20030;-68
2023/09/20 01:39:54;;;;;;;0.57;0.10;;;;;;;18.15;100.00;100717.03;4989972;28;20089;-68
2023/09/20 01:42:21;;;;;;;1.52;0.10;;;;;;;18.16;100.00;100702.03;4991983;28;20034;-68
2023/09/20 01:44:49;;;;;;;0.45;0.20;;;;;;;18.18;99.56;100711.38;4991262;28;20034;-69
2023/09/20 01:47:14;;;;;;;0.45;0.13;;;;;;;18.19;99.26;100712.19;4990995;28;20488;-67
2023/09/20 01:49:41;;;;;;;1.48;0.10;;;;;;;18.24;99.85;100713.28;4987162;28;20041;-68
2023/09/20 01:52:07;;;;;;;1.55;0.15;;;;;;;18.28;100.00;100705.81;4985416;28;20379;-68
2023/09/20 01:54:32;;;;;;;0.50;0.10;;;;;;;18.27;100.00;100709.44;4987782;28;20038;-68
2023/09/20 01:56:58;;;;;;;0.60;0.20;;;;;;;18.18;100.00;100705.28;4990610;28;20496;-68
2023/09/20 01:59:24;;;;;;;1.08;0.20;;;;;;;18.02;100.00;100708.97;4990727;28;20030;-68
2023/09/20 02:01:50;;;;;;;0.85;0.25;;;;;;;17.90;100.00;100713.94;4994141;28;20038;-68
2023/09/20 02:04:15;;;;;;;1.75;0.20;;;;;;;17.77;100.00;100713.78;4989437;28;20030;-68
2023/09/20 02:06:41;;;;;;;0.47;0.13;;;;;;;17.68;100.00;100712.25;4992510;28;20057;-68
2023/09/20 02:09:08;;;;;;;1.42;0.20;;;;;;;17.78;100.00;100709.34;4991092;28;20084;-68
2023/09/20 02:11:33;;;;;;;0.50;0.10;;;;;;;18.12;100.00;100701.59;4989916;28;20026;-68
2023/09/20 02:14:00;;;;;;;0.40;0.10;;;;;;;18.31;99.83;100709.88;4990352;28;20031;-68
2023/09/20 02:16:25;;;;;;;0.40;0.15;;;;;;;18.38;100.00;100708.94;4990144;28;20037;-68
2023/09/20 02:18:52;;;;;;;1.98;0.20;;;;;;;18.40;100.00;100708.75;4991215;28;20117;-68
2023/09/20 02:21:18;;;;;;;1.95;0.20;;;;;;;18.38;100.00;100705.50;4988127;28;20458;-68
2023/09/20 02:23:44;;;;;;;1.13;0.10;;;;;;;18.32;100.00;100700.97;4989688;28;20133;-68
2023/09/20 02:26:10;;;;;;;1.10;0.20;;;;;;;18.28;100.00;100705.00;4990348;28;20113;-68
2023/09/20 02:28:35;;;;;;;2.70;0.20;;;;;;;18.23;100.00;100705.56;4989985;28;20038;-68
2023/09/20 02:31:00;;;;;;;0.50;0.20;;;;;;;18.28;100.00;100700.53;4993237;28;20038;-68
2023/09/20 02:33:27;;;;;;;2.25;0.17;;;;;;;18.31;100.00;100704.63;4988227;28;20391;-68
2023/09/20 02:35:52;;;;;;;2.35;0.10;;;;;;;18.34;99.81;100704.25;4988182;28;20045;-68
2023/09/20 02:38:18;;;;;;;6.80;0.30;;;;;;;18.40;98.89;100708.75;4994848;28;20030;-68
2023/09/20 02:40:46;;;;;;;0.65;0.20;;;;;;;18.42;96.86;100706.75;4996468;28;20037;-68
2023/09/20 02:43:13;;;;;;;0.22;0.08;;;;;;;18.44;98.19;100710.81;4996049;28;20045;-68
2023/09/20 02:45:45;;;;;;;0.68;0.10;;;;;;;18.42;97.67;100717.31;4990016;28;20472;-68
2023/09/20 02:48:10;;;;;;;0.75;0.10;;;;;;;18.43;99.88;100709.16;4989429;28;20031;-68
2023/09/20 02:50:36;;;;;;;0.60;0.10;;;;;;;18.31;99.06;100708.06;4989861;28;20496;-68
2023/09/20 02:53:03;;;;;;;1.75;0.40;;;;;;;18.20;99.48;100701.47;4990589;28;20108;-69
2023/09/20 02:55:31;;;;;;;2.00;0.30;;;;;;;18.15;100.00;100700.41;4993743;28;20062;-69
2023/09/20 02:57:56;;;;;;;0.28;0.17;;;;;;;18.10;99.09;100700.97;4990748;28;20391;-68
2023/09/20 03:00:31;;;;;;;6.45;0.10;;;;;;;18.08;99.28;100699.50;4988971;28;20045;-68
2023/09/20 03:03:01;;;;;;;0.65;0.10;;;;;;;17.97;99.72;100694.72;4990612;28;20500;-68
2023/09/20 03:05:32;;;;;;;0.95;0.20;;;;;;;17.89;100.00;100693.06;4982000;28;20117;-68
2023/09/20 03:07:58;;;;;;;1.60;0.13;;;;;;;17.85;100.00;100700.50;4990002;28;20053;-68
2023/09/20 03:10:24;;;;;;;0.20;0.10;;;;;;;17.85;100.00;100705.78;4988409;28;20030;-68
2023/09/20 03:12:51;;;;;;;0.50;0.10;;;;;;;17.92;100.00;100695.31;4988868;28;20088;-68
2023/09/20 03:15:22;;;;;;;1.38;0.15;;;;;;;17.97;100.00;100702.63;4986023;28;20053;-68
2023/09/20 03:17:57;;;;;;;0.40;0.10;;;;;;;17.92;100.00;100700.59;4986177;28;20061;-69
2023/09/20 03:20:24;;;;;;;1.10;0.20;;;;;;;17.85;100.00;100700.50;4987752;28;20030;-69
2023/09/20 03:23:05;;;;;;;0.52;0.15;;;;;;;17.81;100.00;100687.88;4985342;28;20439;-69
2023/09/20 03:25:37;;;;;;;0.88;0.10;;;;;;;17.84;100.00;100688.34;4987992;28;20109;-69
2023/09/20 03:28:04;;;;;;;0.47;0.10;;;;;;;17.79;100.00;100689.91;4989429;28;20527;-69
2023/09/20 03:30:33;;;;;;;0.40;0.10;;;;;;;17.64;100.00;100687.25;4988184;28;20057;-69
2023/09/20 03:32:59;;;;;;;3.70;0.30;;;;;;;17.48;100.00;100682.22;4987175;28;20484;-69
2023/09/20 03:35:25;;;;;;;0.63;0.20;;;;;;;17.46;100.00;100681.59;4988476;28;20042;-69
2023/09/20 03:37:51;;;;;;;0.77;0.10;;;;;;;17.48;100.00;100676.94;4988090;28;20035;-69
2023/09/20 03:40:21;;;;;;;0.40;0.10;;;;;;;17.56;100.00;100659.19;4988963;28;20037;-68
2023/09/20 03:42:48;;;;;;;0.45;0.20;;;;;;;17.63;100.00;100664.53;4987958;28;20030;-68
2023/09/20 03:45:15;;;;;;;0.30;0.10;;;;;;;17.70;100.00;100659.38;4989097;28;20023;-68
2023/09/20 03:47:41;;;;;;;1.85;0.20;;;;;;;17.85;100.00;100665.44;4988212;28;20113;-69
2023/09/20 03:50:09;;;;;;;1.38;0.10;;;;;;;17.93;99.53;100664.50;4988755;28;20030;-68
2023/09/20 03:52:36;;;;;;;1.40;0.17;;;;;;;17.94;98.22;100672.22;4989851;28;20084;-68
2023/09/20 03:55:02;;;;;;;0.52;0.10;;;;;;;17.96;100.00;100675.47;4989043;28;20038;-68
2023/09/20 03:57:27;;;;;;;2.00;0.20;;;;;;;17.92;100.00;100676.88;4989254;28;21138;-68
2023/09/20 03:59:53;;;;;;;0.30;0.10;;;;;;;17.85;99.48;100671.50;4988568;28;20499;-68
2023/09/20 04:02:19;;;;;;;0.75;0.20;;;;;;;17.78;100.00;100683.00;4988139;28;20330;-68
2023/09/20 04:04:45;;;;;;;0.20;0.20;;;;;;;17.71;100.00;100676.81;4991053;28;20049;-68
2023/09/20 04:07:10;;;;;;;0.98;0.10;;;;;;;17.64;100.00;100681.16;4989049;28;20034;-68
2023/09/20 04:09:36;;;;;;;0.73;0.10;;;;;;;17.55;100.00;100681.28;4987840;28;20447;-69
2023/09/20 04:12:05;;;;;;;0.30;0.10;;;;;;;17.50;100.00;100675.72;4990302;28;20172;-69
2023/09/20 04:14:31;;;;;;;1.83;0.10;;;;;;;17.48;100.00;100679.59;4987932;28;20034;-68
2023/09/20 04:16:56;;;;;;;1.15;0.15;;;;;;;17.42;100.00;100686.41;4986214;28;20396;-69
2023/09/20 04:19:22;;;;;;;0.40;0.10;;;;;;;17.43;100.00;100685.41;4987660;28;20113;-69
2023/09/20 04:21:48;;;;;;;0.30;0.10;;;;;;;17.43;100.00;100685.41;4988599;28;20062;-69
2023/09/20 04:24:15;;;;;;;0.38;0.10;;;;;;;17.44;100.00;100684.41;4987358;28;20042;-67
2023/09/20 04:26:41;;;;;;;0.70;0.10;;;;;;;17.41;100.00;100682.13;4993834;28;20117;-67
2023/09/20 04:29:06;;;;;;;0.65;0.10;;;;;;;17.55;100.00;100688.34;4988527;28;20120;-67
2023/09/20 04:31:33;;;;;;;1.85;0.20;;;;;;;17.71;100.00;100677.63;4988520;28;20031;-67
2023/09/20 04:33:59;;;;;;;0.57;0.10;;;;;;;17.82;98.20;100676.34;4993307;28;20038;-67
2023/09/20 04:36:27;;;;;;;1.95;0.13;;;;;;;17.88;99.77;100667.69;4992447;28;20034;-67
2023/09/20 04:38:54;;;;;;;0.43;0.10;;;;;;;17.87;98.41;100677.41;4993188;28;20388;-68
2023/09/20 04:41:19;;;;;;;0.63;0.20;;;;;;;17.80;99.14;100670.44;4991635;28;20042;-67
2023/09/20 04:43:45;;;;;;;3.17;0.20;;;;;;;17.77;99.30;100670.81;4996451;28;20050;-67
2023/09/20 04:46:10;;;;;;;1.75;0.20;;;;;;;17.65;99.41;100672.25;4993162;28;20035;-67
2023/09/20 04:48:38;;;;;;;0.63;0.10;;;;;;;17.54;100.00;100687.53;4991295;28;20125;-67
2023/09/20 04:51:04;;;;;;;0.60;0.10;;;;;;;17.53;100.00;100690.34;4992225;28;20119;-67
2023/09/20 04:53:29;;;;;;;1.05;0.20;;;;;;;17.53;100.00;100682.44;4988023;28;20484;-67
2023/09/20 04:55:56;;;;;;;0.52;0.20;;;;;;;17.57;100.00;100676.63;4992243;28;20065;-67
2023/09/20 04:58:21;;;;;;;2.03;0.20;;;;;;;17.49;100.00;100687.28;4992151;28;20080;-68
2023/09/20 05:00:48;;;;;;;2.05;0.10;;;;;;;17.46;100.00;100690.31;4988154;28;20129;-67
2023/09/20 05:03:15;;;;;;;0.60;0.20;;;;;;;17.42;100.00;100693.47;4992688;28;20042;-66
2023/09/20 05:05:42;;;;;;;1.27;0.17;;;;;;;17.40;100.00;100685.75;4995019;28;20388;-66
2023/09/20 05:08:08;;;;;;;0.52;0.20;;;;;;;17.42;100.00;100699.56;4989186;28;20495;-65
2023/09/20 05:10:34;;;;;;;1.83;0.10;;;;;;;17.50;100.00;100701.25;4990832;28;20053;-65
2023/09/20 05:13:00;;;;;;;1.77;0.20;;;;;;;17.55;100.00;100698.88;4993950;28;20404;-65
2023/09/20 05:15:25;;;;;;;1.67;0.20;;;;;;;17.78;99.91;100704.06;4993239;28;20041;-65
2023/09/20 05:17:51;;;;;;;3.22;0.10;;;;;;;17.91;97.01;100701.59;4993105;28;20030;-65
2023/09/20 05:20:17;;;;;;;0.88;0.10;;;;;;;17.93;97.73;100704.84;4992880;28;20034;-65
2023/09/20 05:22:42;;;;;;;0.45;0.10;;;;;;;17.91;98.69;100706.88;4992322;28;20057;-64
2023/09/20 05:25:09;;;;;;;4.25;0.20;;;;;;;17.88;99.31;100715.13;4993030;28;20030;-65
2023/09/20 05:27:35;;;;;;;1.02;0.10;;;;;;;17.79;99.02;100711.78;4991733;28;20399;-65
2023/09/20 05:30:01;;;;;;;1.50;0.30;;;;;;;17.71;100.00;100721.63;4994943;28;20030;-65
2023/09/20 05:32:26;;;;;;;0.63;0.10;;;;;;;17.66;100.00;100713.44;4991306;28;20040;-65
2023/09/20 05:34:52;;;;;;;2.08;0.10;;;;;;;17.65;100.00;100714.41;4998731;28;20507;-64
2023/09/20 05:37:17;;;;;;;0.35;0.10;;;;;;;17.63;99.81;100716.41;4991589;28;20472;-65
2023/09/20 05:39:48;;;;;;;2.13;0.10;;;;;;;17.63;100.00;100721.69;4992138;28;20037;-65
2023/09/20 05:42:17;;;;;;;1.15;0.30;;;;;;;17.58;100.00;100715.16;4991835;28;20101;-65
2023/09/20 05:44:43;;;;;;;0.63;0.20;;;;;;;17.58;100.00;100722.22;4990963;28;20026;-65
2023/09/20 05:47:08;;;;;;;3.00;0.20;;;;;;;17.59;100.00;100727.31;4992542;28;20037;-64
2023/09/20 05:49:35;;;;;;;2.28;0.20;;;;;;;17.63;100.00;100724.31;4991166;28;20029;-65
2023/09/20 05:52:02;;;;;;;1.58;0.10;;;;;;;17.66;100.00;100731.88;4992399;28;20045;-65
2023/09/20 05:54:28;;;;;;;0.80;0.10;;;;;;;17.71;100.00;100738.25;4991226;28;20073;-67
2023/09/20 05:56:54;;;;;;;0.63;0.20;;;;;;;17.76;100.00;100732.44;4992038;28;20041;-66
2023/09/20 05:59:19;;;;;;;2.25;0.20;;;;;;;17.73;100.00;100727.53;4991959;28;20038;-65
2023/09/20 06:01:45;;;;;;;4.45;0.20;;;;;;;17.66;100.00;100734.53;4992000;28;20487;-65
2023/09/20 06:04:10;;;;;;;0.30;0.10;;;;;;;17.67;100.00;100738.78;4992159;28;20026;-67
2023/09/20 06:06:39;;;;;;;2.63;0.10;;;;;;;17.72;100.00;100741.69;4991069;28;20026;-66
2023/09/20 06:09:05;;;;;;;0.70;0.10;;;;;;;17.74;100.00;100740.50;4992035;28;20026;-68
2023/09/20 06:11:31;;;;;;;3.80;0.30;;;;;;;17.82;100.00;100739.59;4991163;28;20049;-68
2023/09/20 06:13:56;;;;;;;2.15;0.10;;;;;;;17.90;100.00;100742.13;4990891;28;20125;-69
2023/09/20 06:16:25;;;;;;;1.77;0.20;;;;;;;17.94;100.00;100738.13;4990138;28;20054;-68
2023/09/20 06:18:50;;;;;;;0.68;0.10;;;;;;;18.00;100.00;100739.97;4989644;28;20506;-68
2023/09/20 06:21:17;;;;;;;1.73;0.20;;;;;;;18.07;100.00;100745.34;4989265;28;20109;-68
2023/09/20 06:23:46;;;;;;;1.15;0.20;;;;;;;18.10;100.00;100737.88;4988126;28;20038;-68
2023/09/20 06:26:12;;;;;;;0.50;0.15;;;;;;;18.19;100.00;100734.13;4993333;28;20030;-69
2023/09/20 06:28:42;;;;;;;0.30;0.10;;;;;;;18.29;99.25;100731.19;4988762;28;20066;-68
2023/09/20 06:31:12;;;;;;;0.20;0.10;;;;;;;18.36;97.39;100728.59;4988053;28;20046;-68
2023/09/20 06:33:43;;;;;;;1.90;0.10;;;;;;;18.46;96.58;100726.44;4991117;28;20472;-68
2023/09/20 06:36:08;;;;;;;1.33;0.10;;;;;;;18.53;97.16;100729.94;4986727;28;20108;-68
2023/09/20 06:38:34;;;;;;;1.60;0.20;;;;;;;18.63;97.68;100730.50;4990771;28;20034;-68
2023/09/20 06:41:00;;;;;;;0.40;0.10;;;;;;;18.69;94.88;100719.16;4990865;28;20034;-69
2023/09/20 06:43:26;;;;;;;1.13;0.10;;;;;;;18.72;95.81;100718.78;4990949;28;20038;-68
2023/09/20 06:45:52;;;;;;;0.73;0.10;;;;;;;18.75;95.28;100714.94;4991176;28;20034;-68
2023/09/20 06:48:22;;;;;;;0.38;0.10;;;;;;;18.86;95.70;100709.97;4990050;28;20034;-68
2023/09/20 06:50:52;;;;;;;0.50;0.17;;;;;;;18.94;95.64;100710.81;4991008;28;20034;-68
2023/09/20 06:53:18;;;;;;;2.53;0.10;;;;;;;19.01;96.46;100714.31;4989719;28;20033;-68
2023/09/20 06:55:44;;;;;;;0.65;0.20;;;;;;;19.00;95.52;100715.31;4990999;28;20026;-68
2023/09/20 06:58:10;;;;;;;0.45;0.10;;;;;;;18.98;94.74;100707.59;4992659;28;20388;-68
2023/09/20 07:00:36;;;;;;;0.60;0.10;;;;;;;18.98;96.64;100710.22;4991345;28;20030;-68
2023/09/20 07:03:02;;;;;;;0.40;0.10;;;;;;;18.98;96.09;100709.41;4990924;28;20045;-68
2023/09/20 07:05:30;;;;;;;0.40;0.20;;;;;;;19.02;94.48;100711.47;4988712;28;20034;-68
2023/09/20 07:07:56;;;;;;;0.50;0.10;;;;;;;19.18;94.40;100703.25;4990446;28;20518;-68
2023/09/20 07:10:22;;;;;;;0.50;0.10;;;;;;;19.40;94.41;100711.88;4990009;28;20034;-68
2023/09/20 07:12:47;;;;;;;0.55;0.10;;;;;;;19.49;94.81;100712.53;4990915;28;20037;-68
2023/09/20 07:15:15;;;;;;;0.30;0.08;;;;;;;19.57;94.48;100712.41;4989135;28;20034;-68
2023/09/20 07:17:45;;;;;;;1.38;0.13;;;;;;;19.60;92.77;100714.66;4989852;28;20038;-67
2023/09/20 07:20:21;;;;;;;0.55;0.10;;;;;;;19.65;92.88;100716.69;4990433;28;20436;-67
2023/09/20 07:22:51;;;;;;;1.60;0.10;;;;;;;19.72;96.05;100728.94;4991192;28;20077;-67
2023/09/20 07:25:19;;;;;;;1.85;0.20;;;;;;;19.76;93.84;100726.72;4984436;28;20022;-68
2023/09/20 07:27:46;;;;;;;2.10;0.20;;;;;;;19.82;95.70;100718.00;4982635;28;20038;-67
2023/09/20 07:30:17;;;;;;;1.77;0.10;;;;;;;19.84;96.73;100721.25;4986588;28;20034;-68
2023/09/20 07:32:46;;;;;;;3.85;0.20;;;;;;;19.86;98.34;100727.94;4982819;28;20041;-68
2023/09/20 07:35:27;;;;;;;1.83;0.20;;;;;;;19.89;99.27;100724.09;4988050;28;20126;-68
2023/09/20 07:37:57;;;;;;;0.40;0.10;;;;;;;19.94;99.84;100723.50;4985655;28;20403;-67
2023/09/20 07:40:30;;;;;;;5.18;0.30;;;;;;;19.92;97.04;100731.63;4987825;28;20080;-67
2023/09/20 07:43:07;;;;;;;0.80;0.20;;;;;;;19.95;99.83;100733.06;4990370;28;20038;-68
2023/09/20 07:45:38;;;;;;;0.43;0.20;;;;;;;19.93;95.79;100732.44;4990130;28;20110;-68
2023/09/20 07:48:13;;;;;;;0.60;0.20;;;;;;;19.96;94.29;100730.22;4990833;28;20034;-67
2023/09/20 07:50:43;;;;;;;1.95;0.20;;;;;;;19.97;92.52;100726.56;4985684;28;20026;-67
2023/09/20 07:53:10;;;;;;;1.80;0.10;;;;;;;19.97;93.99;100729.19;4993447;28;20060;-69
2023/09/20 07:55:41;;;;;;;0.57;0.20;;;;;;;19.96;94.95;100739.97;4989969;28;20038;-68
2023/09/20 07:58:15;;;;;;;0.55;0.20;;;;;;;19.93;91.18;100732.44;4993954;28;20105;-68
2023/09/20 08:00:44;;;;;;;0.43;0.15;;;;;;;19.99;94.73;100726.38;4989199;28;20118;-68
2023/09/20 08:03:10;;;;;;;1.75;0.20;;;;;;;20.05;94.31;100729.03;4988102;28;20061;-68
2023/09/20 08:05:37;;;;;;;2.38;0.10;;;;;;;20.12;92.01;100731.69;4991734;28;20038;-68
2023/09/20 08:08:04;;;;;;;0.40;0.10;;;;;;;20.20;93.24;100728.88;4995705;28;20484;-68
2023/09/20 08:10:30;;;;;;;0.57;0.20;;;;;;;20.16;91.92;100727.63;4990702;28;20034;-68
2023/09/20 08:12:55;;;;;;;1.85;0.10;;;;;;;20.14;91.97;100734.94;4994062;28;20039;-68
2023/09/20 08:15:20;;;;;;;0.40;0.10;;;;;;;20.12;94.11;100735.16;5000126;28;20495;-67
2023/09/20 08:20:34;;;;;;;0.93;0.25;;;;;;;20.26;93.98;100737.81;4992824;28;20046;-67
2023/09/20 09:01:31;;;;;;;0.45;0.10;;;;;;;21.95;84.78;100718.38;4993689;28;20597;-69
2023/09/20 09:03:59;;;;;;;1.30;0.10;;;;;;;21.97;86.58;100721.63;4993378;28;20121;-69
2023/09/20 09:06:25;;;;;;;2.92;0.20;;;;;;;22.03;86.99;100720.00;4992646;28;20022;-69
2023/09/20 09:08:51;;;;;;;3.38;0.20;;;;;;;22.13;85.73;100718.50;4994392;28;20037;-67
2023/09/20 09:11:17;;;;;;;0.95;0.10;;;;;;;22.22;88.31;100723.53;4993663;28;20076;-67
2023/09/20 09:13:43;;;;;;;0.40;0.20;;;;;;;22.16;89.05;100726.03;4992473;28;20305;-67
2023/09/20 09:16:08;;;;;;;1.13;0.30;;;;;;;22.13;84.27;100721.16;4993134;28;20030;-67
2023/09/20 09:18:34;;;;;;;2.17;0.10;;;;;;;22.28;89.58;100710.22;4992812;28;20443;-68
2023/09/20 09:21:01;;;;;;;2.03;0.40;;;;;;;22.31;90.73;100714.28;4993037;28;20030;-67
2023/09/20 09:23:36;;;;;;;1.42;0.28;;;;;;;22.29;84.31;100713.69;4993104;28;20053;-67
2023/09/20 09:26:02;;;;;;;1.08;0.20;;;;;;;22.33;88.28;100714.88;4992969;28;20053;-67
2023/09/20 09:28:30;;;;;;;1.05;0.20;;;;;;;22.49;82.71;100717.81;4992709;28;20476;-67
2023/09/20 09:30:57;;;;;;;1.42;0.73;;;;;;;22.68;84.18;100709.91;4994126;28;20141;-67
2023/09/20 09:33:23;;;;;;;0.38;0.10;;;;;;;22.72;85.44;100711.09;4996156;28;20064;-67
2023/09/20 09:35:48;;;;;;;1.08;0.10;;;;;;;22.81;86.05;100713.28;4991597;28;20130;-67
2023/09/20 09:38:24;;;;;;;1.50;0.25;;;;;;;23.01;83.03;100714.94;4994646;28;20403;-67
2023/09/20 09:40:56;;;;;;;1.33;0.30;;;;;;;23.00;86.44;100713.31;4990408;28;20062;-67
2023/09/20 09:43:23;;;;;;;0.70;0.10;;;;;;;23.02;84.99;100714.72;4990704;28;20476;-67
2023/09/20 09:45:53;;;;;;;0.60;0.20;;;;;;;23.23;81.68;100712.66;4990323;28;20058;-67
2023/09/20 09:48:20;;;;;;;0.40;0.10;;;;;;;23.16;82.90;100715.38;4993960;28;20042;-67
2023/09/20 09:50:47;;;;;;;2.30;0.10;;;;;;;23.13;84.95;100713.19;4988358;28;20539;-67
2023/09/20 09:53:20;;;;;;;0.82;0.10;;;;;;;23.08;84.72;100713.03;4992650;28;20073;-67
2023/09/20 09:55:48;;;;;;;0.93;0.20;;;;;;;22.96;84.06;100706.81;4987591;28;20447;-67
2023/09/20 09:58:13;;;;;;;0.95;0.10;;;;;;;22.90;88.13;100713.00;4992449;28;20034;-67
2023/09/20 10:00:41;;;;;;;1.13;0.35;;;;;;;22.97;89.65;100713.75;4995896;28;20057;-67
2023/09/20 10:03:34;;;;;;;0.68;0.10;;;;;;;23.00;88.33;100710.66;4993936;28;20025;-67
2023/09/20 10:06:14;;;;;;;0.85;0.17;;;;;;;23.00;87.78;100710.66;4988733;28;20034;-67
2023/09/20 10:08:41;;;;;;;2.25;0.20;;;;;;;23.08;91.07;100715.69;4991935;28;20121;-67
2023/09/20 10:11:08;;;;;;;0.20;0.10;;;;;;;23.05;91.82;100708.16;4992870;28;20495;-67
2023/09/20 10:13:36;;;;;;;5.90;0.57;;;;;;;23.05;92.63;100700.19;4992178;28;20037;-67
2023/09/20 10:16:05;;;;;;;1.85;0.10;;;;;;;23.05;92.64;100706.31;4995842;28;20113;-67
2023/09/20 10:18:51;;;;;;;1.65;0.22;;;;;;;23.02;91.04;100701.44;4999408;28;20034;-67
2023/09/20 10:21:20;;;;;;;1.05;0.20;;;;;;;23.10;90.80;100689.72;4992287;28;20038;-67
2023/09/20 10:23:47;;;;;;;0.63;0.10;;;;;;;23.15;86.76;100693.31;4984890;28;20058;-68
2023/09/20 10:26:14;;;;;;;2.47;0.30;;;;;;;23.20;89.45;100689.16;4992825;28;20032;-67
2023/09/20 10:28:52;;;;;;;1.23;0.20;;;;;;;23.35;82.42;100692.28;4991405;28;20038;-67
2023/09/20 10:31:18;;;;;;;1.30;0.20;;;;;;;23.48;88.20;100689.47;4992010;28;20048;-68
2023/09/20 10:33:52;;;;;;;1.15;0.13;;;;;;;23.55;90.14;100684.09;4992262;28;20030;-67
2023/09/20 10:36:21;;;;;;;1.13;0.10;;;;;;;23.57;88.93;100676.69;4991429;28;20038;-67
2023/09/20 10:38:47;;;;;;;2.13;0.10;;;;;;;23.56;88.65;100688.38;4997585;28;20038;-68
2023/09/20 10:41:14;;;;;;;1.80;0.20;;;;;;;23.50;89.43;100687.38;4992284;28;20030;-68
2023/09/20 10:43:41;;;;;;;2.08;0.32;;;;;;;23.53;87.71;100686.13;4996338;28;20030;-68
2023/09/20 10:46:18;;;;;;;1.08;0.22;;;;;;;23.71;80.32;100680.78;4992136;28;20493;-68
2023/09/20 10:48:49;;;;;;;2.42;0.20;;;;;;;23.67;87.65;100682.28;4989786;28;20092;-67
2023/09/20 10:51:52;;;;;;;4.72;0.20;;;;;;;23.64;87.40;100686.19;4994076;28;20506;-68
2023/09/20 10:54:23;;;;;;;1.33;0.15;;;;;;;23.69;89.49;100680.19;4991277;28;20050;-68
2023/09/20 10:56:51;;;;;;;2.28;0.15;;;;;;;23.80;90.38;100680.25;4991857;28;20121;-68
2023/09/20 10:59:17;;;;;;;1.15;0.20;;;;;;;23.88;90.52;100687.09;4992472;28;20489;-68
2023/09/20 11:02:02;;;;;;;0.30;0.20;;;;;;;23.94;90.28;100677.41;4989700;28;20121;-68
2023/09/20 11:04:31;;;;;;;0.80;0.20;;;;;;;24.11;90.66;100678.34;4990995;28;20037;-67
2023/09/20 11:06:59;;;;;;;0.90;0.17;;;;;;;24.23;91.30;100681.84;4991705;28;21563;-68
2023/09/20 11:09:30;;;;;;;1.05;0.20;;;;;;;24.25;91.46;100685.13;4990943;28;20030;-68
2023/09/20 11:12:03;;;;;;;2.75;0.20;;;;;;;24.17;89.85;100674.78;4995011;28;20034;-68
2023/09/20 11:14:31;;;;;;;2.25;0.30;;;;;;;24.13;91.90;100663.78;4990786;28;20101;-67
2023/09/20 11:16:57;;;;;;;5.10;0.40;;;;;;;24.10;91.93;100664.22;4991353;28;20033;-69
2023/09/20 11:19:22;;;;;;;1.85;0.40;;;;;;;24.01;91.32;100670.13;4990871;28;20026;-68
2023/09/20 11:21:48;;;;;;;1.67;0.20;;;;;;;23.88;90.91;100660.50;4991546;28;20046;-68
2023/09/20 11:24:15;;;;;;;2.70;0.30;;;;;;;23.85;91.66;100660.94;4993635;28;20117;-68
2023/09/20 11:26:40;;;;;;;4.85;0.38;;;;;;;23.90;91.00;100660.28;4991002;28;20030;-68
2023/09/20 11:29:09;;;;;;;1.48;0.30;;;;;;;23.99;91.11;100667.69;4990725;28;20037;-67
2023/09/20 11:31:35;;;;;;;2.15;0.55;;;;;;;24.02;90.61;100659.28;4997451;28;20038;-67
2023/09/20 11:34:03;;;;;;;3.30;0.40;;;;;;;24.02;90.22;100658.47;4991083;28;20108;-68
2023/09/20 11:36:29;;;;;;;2.40;0.30;;;;;;;23.91;87.05;100659.22;4990833;28;20488;-68
2023/09/20 11:38:55;;;;;;;1.88;0.20;;;;;;;23.95;88.97;100653.22;4990316;28;20030;-67
2023/09/20 11:41:30;;;;;;;1.33;0.20;;;;;;;24.17;84.96;100653.50;4989625;28;20593;-68
2023/09/20 11:43:56;;;;;;;;;;;;;;;24.22;78.87;100650.94;4991147;28;20488;-68
2023/09/20 11:46:22;;;;;;;1.52;0.22;;;;;;;24.33;87.63;100646.72;4989342;28;19928;-68
2023/09/20 11:48:49;;;;;;;0.73;0.15;;;;;;;24.31;88.87;100646.94;4990839;28;20085;-67
2023/09/20 11:51:15;;;;;;;1.65;0.40;;;;;;;24.33;88.85;100641.41;4994904;28;20033;-67
2023/09/20 11:53:44;;;;;;;2.35;0.20;;;;;;;24.36;88.32;100640.94;4990786;28;20038;-67
2023/09/20 11:56:10;;;;;;;1.90;0.20;;;;;;;24.40;88.05;100634.09;4985358;28;20041;-68
2023/09/20 11:58:37;;;;;;;2.45;0.20;;;;;;;24.46;88.21;100636.66;4990663;28;20027;-68
2023/09/20 12:01:06;;;;;;;2.33;0.30;;;;;;;24.42;87.94;100632.84;4990242;28;20096;-68
2023/09/20 12:03:33;;;;;;;4.68;0.38;;;;;;;24.37;88.12;100632.72;4989875;28;20484;-68
2023/09/20 12:05:59;;;;;;;1.00;0.30;;;;;;;24.37;88.40;100629.25;4994472;28;20485;-68